Time;durP1;ratioP1;P1;durP2;ratioP2;P2;SDS_P1;SDS_P2;PMS_P1;PMS_P2;Temp;Humidity;BMP_temperature;BMP_pressure;BME280_temperature;BME280_humidity;BME280_pressure;Samples;Min_cycle;Max_cycle;Signal;HPM_P1;HPM_P2
2023/12/06 00:40:53;;;;;;;4.85;2.38;;;12.00;99.90;;;;;;5886052;23;20057;-83
2023/12/06 00:43:19;;;;;;;7.38;2.80;;;12.10;99.90;;;;;;5011627;28;20030;-82
2023/12/06 00:45:45;;;;;;;4.68;2.88;;;12.00;99.90;;;;;;4995520;28;20034;-83
2023/12/06 00:48:12;;;;;;;5.70;2.58;;;12.00;99.90;;;;;;5011952;28;20482;-84
2023/12/06 00:50:39;;;;;;;9.43;2.72;;;12.00;99.90;;;;;;4995586;28;20057;-83
2023/12/06 00:53:05;;;;;;;6.90;2.53;;;12.10;99.90;;;;;;5015252;28;20518;-82
2023/12/06 00:55:31;;;;;;;8.27;3.72;;;12.00;99.90;;;;;;4999730;28;20032;-83
2023/12/06 00:57:58;;;;;;;15.52;5.28;;;12.00;99.90;;;;;;5002726;28;20033;-82
2023/12/06 01:00:24;;;;;;;8.07;3.60;;;12.00;99.90;;;;;;5002599;28;20021;-82
2023/12/06 01:02:50;;;;;;;5.78;2.88;;;12.00;99.90;;;;;;5019229;28;20104;-81
2023/12/06 01:05:16;;;;;;;4.88;2.58;;;12.00;99.90;;;;;;4999373;28;20116;-81
2023/12/06 01:07:43;;;;;;;4.30;2.47;;;12.00;99.90;;;;;;5015721;28;20034;-81
2023/12/06 01:10:09;;;;;;;6.30;2.70;;;12.00;99.90;;;;;;5015540;28;20033;-82
2023/12/06 01:12:36;;;;;;;6.57;2.72;;;12.00;99.90;;;;;;5018604;28;20037;-81
2023/12/06 01:15:05;;;;;;;4.32;2.53;;;11.90;99.90;;;;;;5018854;28;20029;-82
2023/12/06 01:17:34;;;;;;;4.10;2.10;;;11.90;99.90;;;;;;5018932;28;20026;-81
2023/12/06 01:20:01;;;;;;;3.92;2.45;;;11.70;99.90;;;;;;5018866;28;20030;-81
2023/12/06 01:22:27;;;;;;;4.47;2.58;;;11.70;99.90;;;;;;4988042;28;20483;-81
2023/12/06 01:24:57;;;;;;;1.88;1.77;;;11.70;99.90;;;;;;4998936;28;20076;-80
2023/12/06 01:27:24;;;;;;;3.20;2.03;;;11.60;99.90;;;;;;4999176;28;20026;-81
2023/12/06 01:29:50;;;;;;;3.85;2.05;;;11.60;99.90;;;;;;5012445;28;20421;-81
2023/12/06 01:32:16;;;;;;;4.13;2.20;;;11.60;99.90;;;;;;5024473;28;20026;-81
2023/12/06 01:34:42;;;;;;;2.47;2.08;;;11.50;99.90;;;;;;5018235;28;20033;-80
2023/12/06 01:37:09;;;;;;;1.98;1.77;;;11.50;99.90;;;;;;5018360;28;20026;-80
2023/12/06 01:39:35;;;;;;;2.53;2.08;;;11.40;99.90;;;;;;5018265;28;20059;-81
2023/12/06 01:42:01;;;;;;;2.42;2.13;;;11.40;99.90;;;;;;4998302;28;20132;-81
2023/12/06 01:44:28;;;;;;;2.25;2.00;;;11.40;99.90;;;;;;5016352;28;20026;-85
2023/12/06 01:46:54;;;;;;;4.50;2.30;;;11.30;99.90;;;;;;4997834;28;20054;-80
2023/12/06 01:49:21;;;;;;;3.13;2.53;;;11.40;99.90;;;;;;4996752;28;20053;-82
2023/12/06 01:51:47;;;;;;;2.65;2.42;;;11.30;99.90;;;;;;4988648;28;20031;-81
2023/12/06 01:54:13;;;;;;;4.95;2.70;;;11.30;99.90;;;;;;4977645;28;20250;-82
2023/12/06 01:56:42;;;;;;;5.03;2.60;;;11.30;99.90;;;;;;4980356;28;20076;-82
2023/12/06 01:59:11;;;;;;;3.28;2.30;;;11.30;99.90;;;;;;4980485;28;20030;-82
2023/12/06 02:01:38;;;;;;;2.35;2.10;;;11.30;99.90;;;;;;4987958;28;20112;-82
2023/12/06 02:04:05;;;;;;;3.75;2.20;;;11.20;99.90;;;;;;5018002;28;20048;-81
2023/12/06 02:06:31;;;;;;;3.90;2.20;;;11.20;99.90;;;;;;5017810;28;20375;-82
2023/12/06 02:09:00;;;;;;;4.10;2.25;;;11.30;99.90;;;;;;5034855;28;20080;-82
2023/12/06 02:11:27;;;;;;;4.28;2.60;;;11.30;99.90;;;;;;5030345;28;20022;-81
2023/12/06 02:13:53;;;;;;;4.72;2.50;;;11.30;99.90;;;;;;5015603;28;20052;-81
2023/12/06 02:16:20;;;;;;;3.53;2.05;;;11.30;99.90;;;;;;4997992;28;20025;-82
2023/12/06 02:18:46;;;;;;;4.53;2.00;;;11.40;99.90;;;;;;4997983;28;20030;-81
2023/12/06 02:21:13;;;;;;;3.45;2.40;;;11.30;99.90;;;;;;4981976;28;20050;-81
2023/12/06 02:23:42;;;;;;;4.63;2.10;;;11.40;99.90;;;;;;4982063;28;20021;-81
2023/12/06 02:26:08;;;;;;;2.42;2.20;;;11.30;99.90;;;;;;4981714;28;20041;-81
2023/12/06 02:28:35;;;;;;;4.68;2.10;;;11.40;99.90;;;;;;4981828;28;20037;-81
2023/12/06 02:31:01;;;;;;;5.60;2.10;;;11.40;99.90;;;;;;4997891;28;20088;-82
2023/12/06 02:33:28;;;;;;;6.25;2.70;;;11.40;99.90;;;;;;5015104;28;20037;-81
2023/12/06 02:35:59;;;;;;;2.72;2.50;;;11.30;99.90;;;;;;4997899;28;20583;-82
2023/12/06 02:38:26;;;;;;;3.80;2.60;;;11.20;99.90;;;;;;4997678;28;20124;-81
2023/12/06 02:40:54;;;;;;;5.07;2.63;;;11.20;99.90;;;;;;4981230;28;20065;-81
2023/12/06 02:43:21;;;;;;;8.63;3.00;;;11.10;99.90;;;;;;4997609;28;20150;-82
2023/12/06 02:45:48;;;;;;;7.45;2.80;;;11.10;99.90;;;;;;4997581;28;20080;-82
2023/12/06 02:48:16;;;;;;;4.32;2.63;;;11.10;99.90;;;;;;4981292;28;20033;-82
2023/12/06 02:50:42;;;;;;;6.93;2.38;;;11.10;99.90;;;;;;4981032;28;20368;-82
2023/12/06 02:53:08;;;;;;;10.98;2.85;;;11.10;99.90;;;;;;5013689;28;20113;-82
2023/12/06 02:55:34;;;;;;;6.40;2.70;;;11.00;99.90;;;;;;5014920;28;20060;-82
2023/12/06 02:58:01;;;;;;;6.28;2.65;;;11.00;99.90;;;;;;5014892;28;20073;-82
2023/12/06 03:00:27;;;;;;;5.03;2.80;;;10.90;99.90;;;;;;5014745;28;20026;-82
2023/12/06 03:02:53;;;;;;;5.85;2.63;;;10.90;99.90;;;;;;4997029;28;20026;-81
2023/12/06 03:05:20;;;;;;;5.57;2.85;;;10.90;99.90;;;;;;4981009;28;20026;-82
2023/12/06 03:07:46;;;;;;;6.60;2.95;;;10.90;99.90;;;;;;4997354;28;20034;-81
2023/12/06 03:10:12;;;;;;;7.25;2.78;;;10.90;99.90;;;;;;4981694;28;20026;-81
2023/12/06 03:12:38;;;;;;;6.63;2.67;;;10.90;99.90;;;;;;4980901;28;20093;-81
2023/12/06 03:15:05;;;;;;;6.55;3.20;;;10.90;99.90;;;;;;4980808;28;20033;-81
2023/12/06 03:17:31;;;;;;;9.68;2.97;;;10.90;99.90;;;;;;5013351;28;20029;-82
2023/12/06 03:19:57;;;;;;;10.43;3.40;;;11.00;99.90;;;;;;5013414;28;20080;-82
2023/12/06 03:22:23;;;;;;;5.00;2.72;;;11.00;99.90;;;;;;5025890;28;20056;-81
2023/12/06 03:24:49;;;;;;;6.22;3.17;;;11.00;99.90;;;;;;5034163;28;20025;-81
2023/12/06 03:27:16;;;;;;;6.20;3.28;;;11.00;99.90;;;;;;5016221;28;20084;-81
2023/12/06 03:29:42;;;;;;;7.68;3.10;;;11.00;99.90;;;;;;5015790;28;20029;-81
2023/12/06 03:32:08;;;;;;;13.32;3.92;;;11.00;99.90;;;;;;4996371;28;20508;-81
2023/12/06 03:34:35;;;;;;;8.27;3.70;;;11.00;99.90;;;;;;4996424;28;20113;-82
2023/12/06 03:37:02;;;;;;;7.13;3.60;;;10.90;99.90;;;;;;4991343;28;20026;-82
2023/12/06 03:39:29;;;;;;;8.57;3.58;;;10.90;99.90;;;;;;4996675;28;20038;-82
2023/12/06 03:41:55;;;;;;;5.88;3.28;;;10.90;99.90;;;;;;4999479;28;20076;-81
2023/12/06 03:44:21;;;;;;;8.18;3.50;;;10.80;99.90;;;;;;5016009;28;20037;-81
2023/12/06 03:46:48;;;;;;;7.53;3.88;;;10.80;99.90;;;;;;4999556;28;20053;-81
2023/12/06 03:49:14;;;;;;;7.40;3.58;;;10.70;99.90;;;;;;5016110;28;20044;-81
2023/12/06 03:51:40;;;;;;;6.10;3.50;;;10.60;99.90;;;;;;4996195;28;20029;-81
2023/12/06 03:54:06;;;;;;;13.77;4.07;;;10.70;99.90;;;;;;4980001;28;20041;-81
2023/12/06 03:56:33;;;;;;;6.65;3.80;;;10.60;99.90;;;;;;4979898;28;20030;-82
2023/12/06 03:58:59;;;;;;;7.32;4.28;;;10.60;99.90;;;;;;4979951;28;20396;-82
2023/12/06 04:01:25;;;;;;;9.77;4.07;;;10.60;99.90;;;;;;4982814;28;20025;-82
2023/12/06 04:03:52;;;;;;;5.72;3.58;;;10.60;99.90;;;;;;5015959;28;20103;-80
2023/12/06 04:06:18;;;;;;;6.05;3.95;;;10.60;99.90;;;;;;5033186;28;20027;-80
2023/12/06 04:08:44;;;;;;;6.82;4.15;;;10.60;99.90;;;;;;5015361;28;20453;-80
2023/12/06 04:11:10;;;;;;;6.38;3.80;;;10.70;99.90;;;;;;4998251;28;20029;-80
2023/12/06 04:13:39;;;;;;;6.45;4.35;;;10.70;99.90;;;;;;5013413;28;20038;-80
2023/12/06 04:16:07;;;;;;;6.28;4.50;;;10.60;99.90;;;;;;4995821;28;20030;-81
2023/12/06 04:18:33;;;;;;;8.02;4.43;;;10.60;99.90;;;;;;4995883;28;20033;-80
2023/12/06 04:20:59;;;;;;;5.63;3.83;;;10.60;99.90;;;;;;5027300;28;20079;-82
2023/12/06 04:23:25;;;;;;;10.43;4.25;;;10.50;99.90;;;;;;4999129;28;20033;-81
2023/12/06 04:25:51;;;;;;;9.23;4.38;;;10.50;99.90;;;;;;4998677;28;20489;-83
2023/12/06 04:28:17;;;;;;;7.80;4.22;;;10.50;99.90;;;;;;4997889;28;20029;-83
2023/12/06 04:30:44;;;;;;;9.30;4.85;;;10.50;99.90;;;;;;5033057;28;20053;-82
2023/12/06 04:33:10;;;;;;;9.23;3.40;;;10.50;99.90;;;;;;5033134;28;20036;-84
2023/12/06 04:35:36;;;;;;;9.30;3.78;;;10.40;99.90;;;;;;5015546;28;20034;-82
2023/12/06 04:38:02;;;;;;;12.10;4.88;;;10.40;99.90;;;;;;4997210;28;20471;-83
2023/12/06 04:40:28;;;;;;;8.82;4.35;;;10.40;99.90;;;;;;4979742;28;20383;-82
2023/12/06 04:42:55;;;;;;;10.75;4.30;;;10.30;99.90;;;;;;4998608;28;20049;-82
2023/12/06 04:45:21;;;;;;;8.68;4.57;;;10.20;99.90;;;;;;5015444;28;20140;-82
2023/12/06 04:47:49;;;;;;;9.75;4.03;;;10.20;99.90;;;;;;4998359;28;20028;-83
2023/12/06 04:50:15;;;;;;;7.63;4.00;;;10.10;99.90;;;;;;4997969;28;20029;-84
2023/12/06 04:52:41;;;;;;;7.03;3.97;;;10.10;99.90;;;;;;5014560;28;20058;-86
2023/12/06 04:55:08;;;;;;;5.90;4.05;;;10.00;99.90;;;;;;4993663;28;20062;-85
2023/12/06 04:57:34;;;;;;;4.65;3.45;;;10.00;99.90;;;;;;4988682;28;20025;-85
2023/12/06 05:00:00;;;;;;;6.63;3.95;;;10.00;99.90;;;;;;4996384;28;20036;-85
2023/12/06 05:02:27;;;;;;;8.85;4.90;;;10.00;99.90;;;;;;4988471;28;20061;-84
2023/12/06 05:04:53;;;;;;;9.13;4.25;;;9.90;99.90;;;;;;4980107;28;20025;-84
2023/12/06 05:07:19;;;;;;;6.10;3.92;;;9.90;99.90;;;;;;4978074;28;20034;-84
2023/12/06 05:09:45;;;;;;;6.85;4.53;;;9.90;99.90;;;;;;4996211;28;20084;-84
2023/12/06 05:12:12;;;;;;;8.18;4.57;;;9.90;99.90;;;;;;4996365;28;20022;-85
2023/12/06 05:14:38;;;;;;;8.43;4.70;;;9.90;99.90;;;;;;5011855;28;20053;-84
2023/12/06 05:17:04;;;;;;;7.38;4.68;;;9.80;99.90;;;;;;5011200;28;20492;-85
2023/12/06 05:19:30;;;;;;;10.30;4.57;;;9.80;99.90;;;;;;5015604;28;20037;-85
2023/12/06 05:21:57;;;;;;;7.38;4.53;;;9.70;99.90;;;;;;5009216;28;20050;-83
2023/12/06 05:24:23;;;;;;;7.97;4.75;;;9.70;99.90;;;;;;5004398;28;20037;-84
2023/12/06 05:26:49;;;;;;;8.18;4.75;;;9.70;99.90;;;;;;5011615;28;20022;-83
2023/12/06 05:29:16;;;;;;;10.20;5.03;;;9.70;99.90;;;;;;5012390;28;20034;-84
2023/12/06 05:31:43;;;;;;;9.57;4.47;;;9.60;99.90;;;;;;5028604;28;20025;-83
2023/12/06 05:34:09;;;;;;;8.23;4.65;;;9.50;99.90;;;;;;5011537;28;20129;-82
2023/12/06 05:36:35;;;;;;;8.40;5.35;;;9.40;99.90;;;;;;5011101;28;20022;-83
2023/12/06 05:39:05;;;;;;;7.53;5.18;;;9.30;99.90;;;;;;4995560;28;20045;-83
2023/12/06 05:41:32;;;;;;;8.93;5.18;;;9.30;99.90;;;;;;5012025;28;20099;-83
2023/12/06 05:43:58;;;;;;;10.40;5.20;;;9.30;99.90;;;;;;4978607;28;20391;-83
2023/12/06 05:46:24;;;;;;;10.27;5.20;;;9.30;99.90;;;;;;4981897;28;20070;-83
2023/12/06 05:48:51;;;;;;;10.48;5.47;;;9.30;99.90;;;;;;5030388;28;20029;-83
2023/12/06 05:51:17;;;;;;;6.45;5.13;;;9.30;99.90;;;;;;5001848;28;20474;-83
2023/12/06 05:53:43;;;;;;;8.77;5.22;;;9.30;99.90;;;;;;4995490;28;20046;-83
2023/12/06 05:56:10;;;;;;;7.10;4.63;;;9.30;99.90;;;;;;4979253;28;20018;-83
2023/12/06 05:58:37;;;;;;;7.63;4.78;;;9.20;99.90;;;;;;4998617;28;20068;-83
2023/12/06 06:01:03;;;;;;;8.40;4.80;;;9.20;99.90;;;;;;4998621;28;20026;-83
2023/12/06 06:03:29;;;;;;;10.15;5.10;;;9.20;99.90;;;;;;5001485;28;20072;-83
2023/12/06 06:05:56;;;;;;;12.05;5.60;;;9.20;99.90;;;;;;5001906;28;20445;-83
2023/12/06 06:08:22;;;;;;;8.35;5.57;;;9.20;99.90;;;;;;5016602;28;20471;-83
2023/12/06 06:10:48;;;;;;;8.07;5.88;;;9.10;99.90;;;;;;5001487;28;20493;-82
2023/12/06 06:13:15;;;;;;;10.98;6.35;;;9.10;99.90;;;;;;4983310;28;20038;-83
2023/12/06 06:15:41;;;;;;;12.30;6.53;;;9.00;99.90;;;;;;5015792;28;20537;-82
2023/12/06 06:18:07;;;;;;;15.60;6.88;;;9.00;99.90;;;;;;4998346;28;20497;-83
2023/12/06 06:20:34;;;;;;;9.15;6.43;;;9.00;99.90;;;;;;4995025;28;20029;-83
2023/12/06 06:23:00;;;;;;;8.50;6.10;;;9.10;99.90;;;;;;4968322;28;20031;-83
2023/12/06 06:25:26;;;;;;;9.20;6.18;;;9.10;99.90;;;;;;5000029;28;20116;-84
2023/12/06 06:27:52;;;;;;;8.80;5.65;;;9.20;99.90;;;;;;5001644;28;20029;-83
2023/12/06 06:30:19;;;;;;;11.23;6.40;;;9.20;99.90;;;;;;5000424;28;20021;-83
2023/12/06 06:32:45;;;;;;;12.00;7.47;;;9.20;99.90;;;;;;4983876;28;20440;-84
2023/12/06 06:35:11;;;;;;;11.18;6.70;;;9.40;99.90;;;;;;4989470;28;20054;-83
2023/12/06 06:37:38;;;;;;;12.57;5.88;;;9.60;99.90;;;;;;5005939;28;20033;-83
2023/12/06 06:40:07;;;;;;;8.40;5.45;;;9.80;99.90;;;;;;5001220;28;20030;-82
2023/12/06 06:42:34;;;;;;;7.82;5.30;;;9.90;99.90;;;;;;4981226;28;20049;-84
2023/12/06 06:45:02;;;;;;;5.60;4.38;;;10.10;99.90;;;;;;4981594;28;20030;-84
2023/12/06 06:47:28;;;;;;;6.60;4.72;;;10.30;99.90;;;;;;4977912;28;20034;-83
2023/12/06 06:49:54;;;;;;;5.82;4.85;;;10.50;99.90;;;;;;4973185;28;20031;-84
2023/12/06 06:52:21;;;;;;;5.50;5.00;;;10.60;99.90;;;;;;5003397;28;20029;-83
2023/12/06 06:54:47;;;;;;;6.50;5.60;;;11.00;99.90;;;;;;5014867;28;20073;-83
2023/12/06 06:57:13;;;;;;;7.85;7.10;;;11.10;99.90;;;;;;4994163;28;20026;-84
2023/12/06 06:59:39;;;;;;;8.88;8.07;;;11.40;99.90;;;;;;4978177;28;20057;-83
2023/12/06 07:02:06;;;;;;;10.60;9.60;;;11.60;99.90;;;;;;4980474;28;20026;-83
2023/12/06 07:04:32;;;;;;;11.00;10.10;;;11.60;99.90;;;;;;4978123;28;20026;-83
2023/12/06 07:06:58;;;;;;;13.55;12.55;;;11.60;99.90;;;;;;4995513;28;20030;-84
2023/12/06 07:09:25;;;;;;;14.60;13.55;;;11.50;99.90;;;;;;4981289;28;20034;-84
2023/12/06 07:11:51;;;;;;;14.60;13.48;;;11.50;99.90;;;;;;5014685;28;20025;-84
2023/12/06 07:14:17;;;;;;;15.60;14.55;;;11.60;99.90;;;;;;4981366;28;20475;-84
2023/12/06 07:16:45;;;;;;;16.52;15.15;;;11.70;99.90;;;;;;4995412;28;20054;-84
2023/12/06 07:19:12;;;;;;;15.90;14.80;;;11.80;99.90;;;;;;5014921;28;20079;-85
2023/12/06 07:21:39;;;;;;;16.13;15.00;;;11.90;99.90;;;;;;4981103;28;20025;-84
2023/12/06 07:24:06;;;;;;;16.63;15.43;;;12.10;99.90;;;;;;4997414;28;20026;-84
2023/12/06 07:26:32;;;;;;;17.38;16.02;;;12.10;99.90;;;;;;4986061;28;20030;-86
2023/12/06 07:28:58;;;;;;;17.48;16.10;;;12.10;99.90;;;;;;4962285;28;20034;-78
2023/12/06 07:31:25;;;;;;;20.73;18.85;;;12.40;99.90;;;;;;5012881;28;20517;-82
2023/12/06 07:33:55;;;;;;;19.13;17.17;;;12.50;99.90;;;;;;4993456;28;20447;-82
2023/12/06 07:36:21;;;;;;;17.77;15.98;;;12.50;99.90;;;;;;4960779;28;20053;-82
2023/12/06 07:38:48;;;;;;;16.98;15.38;;;12.60;99.90;;;;;;4967740;28;20061;-82
2023/12/06 07:41:16;;;;;;;17.55;15.80;;;12.60;99.90;;;;;;4960857;28;20400;-82
2023/12/06 07:43:42;;;;;;;18.40;16.45;;;12.60;99.90;;;;;;5014194;28;20084;-81
2023/12/06 07:46:08;;;;;;;18.58;16.45;;;12.70;99.90;;;;;;4999335;28;20061;-82
2023/12/06 07:48:34;;;;;;;18.08;16.23;;;13.00;99.90;;;;;;5006304;28;20025;-82
2023/12/06 07:51:04;;;;;;;15.57;14.05;;;13.20;99.90;;;;;;4995998;28;20116;-82
2023/12/06 07:53:30;;;;;;;16.27;14.77;;;13.20;99.90;;;;;;5015125;28;20041;-83
2023/12/06 07:55:58;;;;;;;15.40;14.10;;;13.30;99.90;;;;;;5015856;28;20030;-83
2023/12/06 07:58:25;;;;;;;17.80;15.90;;;13.40;99.90;;;;;;5015514;28;20431;-82
2023/12/06 08:00:51;;;;;;;13.50;12.45;;;13.40;99.90;;;;;;4999429;28;20037;-84
2023/12/06 08:03:18;;;;;;;13.38;12.38;;;13.30;99.90;;;;;;4999519;28;20471;-83
2023/12/06 08:05:45;;;;;;;13.68;12.18;;;13.40;99.90;;;;;;5015265;28;20091;-83
2023/12/06 08:08:12;;;;;;;11.95;11.07;;;13.50;99.90;;;;;;5015419;28;20477;-83
2023/12/06 08:10:41;;;;;;;12.70;11.50;;;13.50;99.90;;;;;;5015822;28;20039;-84
2023/12/06 08:13:07;;;;;;;15.23;13.82;;;13.50;99.90;;;;;;5034665;28;20037;-82
2023/12/06 08:15:35;;;;;;;12.32;11.15;;;13.40;99.90;;;;;;5033335;28;20029;-83
2023/12/06 08:18:01;;;;;;;11.90;11.00;;;13.40;99.90;;;;;;4995117;28;20026;-83
2023/12/06 08:20:28;;;;;;;12.75;11.75;;;13.30;99.90;;;;;;5011549;28;20109;-82
2023/12/06 08:22:54;;;;;;;11.15;10.25;;;13.30;99.90;;;;;;4996540;28;20025;-82
2023/12/06 08:25:31;;;;;;;12.00;11.00;;;13.30;99.90;;;;;;5015237;28;20033;-81
2023/12/06 08:28:00;;;;;;;11.48;10.57;;;13.30;99.90;;;;;;4995526;28;20030;-82
2023/12/06 08:30:26;;;;;;;11.27;10.20;;;13.30;99.90;;;;;;5011031;28;20089;-82
2023/12/06 08:32:53;;;;;;;12.18;11.00;;;13.40;99.90;;;;;;4987665;28;20033;-82
2023/12/06 08:35:20;;;;;;;12.27;11.18;;;13.60;99.90;;;;;;5013515;28;20040;-84
2023/12/06 08:37:46;;;;;;;11.05;10.23;;;13.80;99.90;;;;;;4996429;28;20109;-82
2023/12/06 08:40:13;;;;;;;12.48;11.43;;;14.00;99.90;;;;;;5009024;28;20080;-82
2023/12/06 08:42:40;;;;;;;13.50;11.70;;;14.00;99.90;;;;;;5030118;28;20038;-82
2023/12/06 08:45:08;;;;;;;12.13;11.38;;;13.90;99.90;;;;;;5015343;28;20494;-84
2023/12/06 08:47:34;;;;;;;12.70;11.80;;;13.80;99.90;;;;;;4999108;28;20025;-84
2023/12/06 08:50:04;;;;;;;12.52;11.63;;;13.90;99.90;;;;;;4998832;28;20029;-84
2023/12/06 08:52:31;;;;;;;12.00;11.20;;;13.90;99.90;;;;;;4999152;28;20021;-82
2023/12/06 08:54:57;;;;;;;12.43;11.50;;;14.10;99.90;;;;;;5015063;28;20038;-81
2023/12/06 08:57:23;;;;;;;13.63;12.55;;;14.20;99.90;;;;;;4999015;28;20083;-82
2023/12/06 08:59:49;;;;;;;13.25;12.23;;;14.40;99.90;;;;;;4998470;28;20514;-80
2023/12/06 09:02:16;;;;;;;14.43;13.20;;;14.40;99.90;;;;;;5005883;28;20083;-80
2023/12/06 09:04:42;;;;;;;13.18;12.18;;;14.50;99.90;;;;;;5028627;28;20021;-80
2023/12/06 09:07:09;;;;;;;13.45;12.52;;;14.40;99.90;;;;;;5015127;28;20029;-82
2023/12/06 09:09:35;;;;;;;14.73;13.57;;;14.40;99.90;;;;;;4991243;28;20521;-84
2023/12/06 09:12:01;;;;;;;15.15;14.15;;;14.50;99.90;;;;;;4998491;28;20032;-81
2023/12/06 09:14:27;;;;;;;18.20;16.65;;;14.60;99.90;;;;;;4997780;28;20038;-81
2023/12/06 09:16:54;;;;;;;17.60;15.90;;;14.60;99.90;;;;;;5015107;28;20053;-82
2023/12/06 09:19:21;;;;;;;16.80;15.30;;;14.60;99.90;;;;;;4998130;28;20028;-83
2023/12/06 09:21:47;;;;;;;15.13;14.02;;;14.60;99.90;;;;;;5015197;28;20084;-81
2023/12/06 09:24:14;;;;;;;15.25;13.98;;;14.70;99.90;;;;;;5007157;28;20049;-81
2023/12/06 09:26:41;;;;;;;15.77;14.25;;;14.60;99.90;;;;;;5018535;28;20099;-82
2023/12/06 09:29:09;;;;;;;13.95;13.02;;;14.60;99.90;;;;;;4994338;28;20038;-81
2023/12/06 09:31:37;;;;;;;14.25;13.20;;;14.90;99.90;;;;;;5003980;28;20030;-82
2023/12/06 09:34:04;;;;;;;15.43;14.43;;;15.00;99.90;;;;;;4994688;28;20614;-80
2023/12/06 09:36:31;;;;;;;15.30;14.27;;;14.90;99.90;;;;;;5018050;28;20052;-81
2023/12/06 09:38:58;;;;;;;15.02;14.00;;;14.80;99.90;;;;;;5001783;28;20033;-81
2023/12/06 09:41:34;;;;;;;15.13;13.98;;;14.80;99.90;;;;;;5036066;28;20080;-81
2023/12/06 09:44:01;;;;;;;16.63;15.55;;;15.00;99.90;;;;;;5002314;28;20542;-81
2023/12/06 09:46:28;;;;;;;15.68;14.77;;;15.00;99.90;;;;;;5018209;28;20057;-81
2023/12/06 09:48:54;;;;;;;16.25;15.13;;;15.00;99.90;;;;;;5017952;28;20060;-80
2023/12/06 09:51:22;;;;;;;16.35;15.30;;;15.00;99.90;;;;;;5035849;28;20356;-81
2023/12/06 09:53:48;;;;;;;15.70;14.68;;;15.00;99.90;;;;;;5035701;28;20030;-81
2023/12/06 09:56:15;;;;;;;16.80;15.70;;;15.00;99.90;;;;;;5005410;28;20066;-87
2023/12/06 09:58:43;;;;;;;15.85;14.75;;;15.10;99.90;;;;;;5008254;28;20037;-89
2023/12/06 10:01:10;;;;;;;15.75;14.65;;;15.20;99.90;;;;;;5000423;28;20032;-89
2023/12/06 10:03:38;;;;;;;16.85;15.55;;;15.20;99.90;;;;;;5003080;28;20101;-91
2023/12/06 10:06:04;;;;;;;16.35;15.10;;;15.10;99.90;;;;;;5019406;28;20029;-91
2023/12/06 10:08:35;;;;;;;16.17;15.18;;;15.00;99.90;;;;;;5019537;28;20029;-90
2023/12/06 10:11:08;;;;;;;17.15;15.95;;;15.10;99.90;;;;;;5019590;28;20053;-91
2023/12/06 10:13:40;;;;;;;18.73;17.35;;;15.20;99.90;;;;;;5003088;28;20034;-92
2023/12/06 10:16:13;;;;;;;18.50;17.35;;;15.40;99.90;;;;;;5019335;28;20438;-88
2023/12/06 10:18:40;;;;;;;18.90;17.70;;;15.40;99.90;;;;;;4999942;28;20490;-91
2023/12/06 10:21:08;;;;;;;20.33;18.85;;;15.40;99.90;;;;;;4999690;28;20036;-91
2023/12/06 10:23:35;;;;;;;21.15;19.70;;;15.40;99.90;;;;;;4998046;28;20106;-92
2023/12/06 10:26:03;;;;;;;20.65;19.25;;;15.40;99.90;;;;;;4998570;28;20053;-91
2023/12/06 10:28:30;;;;;;;19.65;18.45;;;15.50;99.90;;;;;;5018047;28;20493;-90
2023/12/06 10:31:03;;;;;;;20.00;18.80;;;15.60;99.90;;;;;;4999523;28;20033;-91
2023/12/06 10:33:31;;;;;;;19.40;18.10;;;15.60;99.90;;;;;;4988451;28;20121;-91
2023/12/06 10:36:02;;;;;;;20.00;18.80;;;15.60;99.90;;;;;;4983462;28;20058;-89
2023/12/06 10:38:29;;;;;;;21.17;19.58;;;15.80;99.90;;;;;;4983249;28;20033;-92
2023/12/06 10:40:58;;;;;;;21.58;19.88;;;15.70;99.90;;;;;;4982893;28;20050;-91
2023/12/06 10:43:31;;;;;;;21.13;19.70;;;15.50;99.90;;;;;;4983373;28;20061;-91
2023/12/06 10:45:59;;;;;;;22.02;20.60;;;15.40;99.90;;;;;;4983833;28;20030;-91
2023/12/06 10:48:29;;;;;;;23.23;21.63;;;15.40;99.90;;;;;;4983650;28;20455;-91
2023/12/06 10:50:56;;;;;;;23.10;21.70;;;15.40;99.90;;;;;;4982967;28;20025;-92
2023/12/06 10:53:23;;;;;;;22.75;21.35;;;15.40;99.90;;;;;;4983090;28;20041;-91
2023/12/06 10:55:50;;;;;;;22.70;21.20;;;15.60;99.90;;;;;;4982991;28;20085;-93
2023/12/06 10:58:24;;;;;;;22.05;20.70;;;15.70;99.90;;;;;;4999949;28;20030;-92
2023/12/06 11:00:51;;;;;;;21.75;20.20;;;15.80;99.90;;;;;;5003630;28;20061;-91
2023/12/06 11:03:18;;;;;;;21.73;19.92;;;15.70;99.90;;;;;;5002435;28;20029;-90
2023/12/06 11:05:48;;;;;;;21.45;20.05;;;15.70;99.90;;;;;;5002707;28;20025;-91
2023/12/06 11:08:48;;;;;;;21.63;19.98;;;15.80;99.90;;;;;;5002999;28;20029;-93
2023/12/06 11:11:43;;;;;;;22.05;20.67;;;15.60;99.90;;;;;;5002446;28;20191;-93
2023/12/06 11:14:12;;;;;;;22.02;20.60;;;15.30;99.90;;;;;;4962857;28;20041;-93
2023/12/06 11:17:21;;;;;;;22.90;21.30;;;15.30;99.90;;;;;;4989702;28;20037;-92
2023/12/06 11:19:49;;;;;;;21.23;20.02;;;15.50;99.90;;;;;;4894704;29;20039;-91
2023/12/06 11:22:15;;;;;;;22.48;21.17;;;15.50;99.90;;;;;;4904953;29;20035;-94
2023/12/06 11:24:45;;;;;;;24.98;23.00;;;15.50;99.90;;;;;;4905569;29;20036;-91
2023/12/06 11:27:21;;;;;;;22.77;21.30;;;15.40;99.90;;;;;;4906393;29;20092;-92
2023/12/06 11:29:53;;;;;;;22.17;20.88;;;15.30;99.90;;;;;;4904947;29;20163;-91
2023/12/06 11:32:19;;;;;;;21.45;20.25;;;15.20;99.90;;;;;;4920777;29;20040;-92
2023/12/06 11:34:55;;;;;;;22.35;20.67;;;15.10;99.90;;;;;;4904979;29;20537;-90
2023/12/06 11:37:22;;;;;;;22.05;20.65;;;15.10;99.90;;;;;;4904688;29;20035;-92
2023/12/06 11:40:18;;;;;;;21.35;19.88;;;15.10;99.90;;;;;;4905149;29;20410;-93
2023/12/06 11:43:05;;;;;;;22.02;20.20;;;15.10;99.90;;;;;;4928607;29;20043;-92
2023/12/06 11:45:37;;;;;;;22.15;20.85;;;15.00;99.90;;;;;;4921260;29;20139;-92
2023/12/06 11:48:05;;;;;;;22.13;20.60;;;15.00;99.90;;;;;;4910063;29;20126;-91
2023/12/06 11:50:43;;;;;;;21.77;20.48;;;15.20;99.90;;;;;;4953167;28;20030;-92
2023/12/06 11:53:11;;;;;;;22.83;21.38;;;15.40;99.90;;;;;;5004607;28;20025;-93
2023/12/06 11:55:40;;;;;;;23.70;21.92;;;15.60;99.90;;;;;;5017815;28;20116;-91
2023/12/06 11:58:13;;;;;;;23.58;22.00;;;15.70;99.90;;;;;;5001670;28;20040;-92
2023/12/06 12:00:44;;;;;;;23.05;21.55;;;15.80;99.90;;;;;;5002015;28;20037;-92
2023/12/06 12:03:12;;;;;;;25.27;23.25;;;15.70;99.90;;;;;;5002384;28;20079;-90
2023/12/06 12:05:41;;;;;;;23.52;22.13;;;15.70;99.90;;;;;;5002751;28;20026;-90
2023/12/06 12:08:10;;;;;;;23.67;22.17;;;15.60;99.90;;;;;;5002755;28;20045;-91
2023/12/06 12:10:37;;;;;;;24.33;22.73;;;15.60;99.90;;;;;;5002749;28;20206;-93
2023/12/06 12:13:03;;;;;;;24.65;23.17;;;15.60;99.90;;;;;;5003220;28;20124;-91
2023/12/06 12:15:30;;;;;;;25.58;23.73;;;15.70;99.90;;;;;;5000847;28;20037;-91
2023/12/06 12:17:56;;;;;;;25.45;23.80;;;15.70;99.90;;;;;;5000772;28;20036;-92
2023/12/06 12:20:22;;;;;;;25.55;24.10;;;15.70;99.90;;;;;;5000994;28;20115;-92
2023/12/06 12:22:52;;;;;;;25.65;24.15;;;15.80;99.90;;;;;;5000666;28;20025;-91
2023/12/06 12:25:19;;;;;;;26.83;24.95;;;15.70;99.90;;;;;;5000824;28;20508;-90
2023/12/06 12:27:47;;;;;;;26.80;25.20;;;15.80;99.90;;;;;;5000534;28;20124;-90
2023/12/06 12:30:14;;;;;;;27.70;26.00;;;15.70;99.90;;;;;;5000658;28;20033;-90
2023/12/06 12:32:45;;;;;;;29.58;27.58;;;15.70;99.90;;;;;;5001073;28;20030;-90
2023/12/06 12:35:12;;;;;;;32.65;29.52;;;15.70;99.90;;;;;;5000820;28;20398;-89
2023/12/06 12:37:39;;;;;;;31.70;29.30;;;15.70;99.90;;;;;;5000824;28;20091;-90
2023/12/06 12:40:10;;;;;;;33.90;30.92;;;15.80;99.90;;;;;;5001042;28;20036;-91
2023/12/06 12:42:41;;;;;;;29.88;27.77;;;15.80;99.90;;;;;;4981228;28;20517;-87
2023/12/06 12:45:19;;;;;;;28.90;26.90;;;15.70;99.90;;;;;;4979200;28;20113;-89
2023/12/06 12:47:46;;;;;;;29.98;27.75;;;15.50;99.90;;;;;;4980998;28;20037;-90
2023/12/06 12:50:22;;;;;;;29.48;27.55;;;15.40;99.90;;;;;;4980912;28;20033;-89
2023/12/06 12:52:55;;;;;;;27.90;26.10;;;15.40;99.90;;;;;;4983788;28;20088;-92
2023/12/06 12:55:22;;;;;;;27.45;25.90;;;15.40;99.90;;;;;;4985114;28;20042;-90
2023/12/06 12:57:51;;;;;;;27.58;25.77;;;15.30;99.90;;;;;;4983103;28;20034;-89
2023/12/06 13:00:18;;;;;;;28.10;26.40;;;15.30;99.90;;;;;;4984231;28;20092;-88
2023/12/06 13:02:45;;;;;;;29.63;27.55;;;15.30;99.90;;;;;;4984043;28;20042;-86
2023/12/06 13:05:12;;;;;;;28.48;26.55;;;15.30;99.90;;;;;;5000952;28;20084;-87
2023/12/06 13:07:39;;;;;;;28.65;26.67;;;15.50;99.90;;;;;;4984914;28;20022;-91
2023/12/06 13:10:10;;;;;;;28.70;26.83;;;15.40;99.90;;;;;;4984521;28;20116;-91
2023/12/06 13:12:38;;;;;;;28.30;26.42;;;15.40;99.90;;;;;;4984271;28;20048;-92
2023/12/06 13:15:08;;;;;;;28.67;26.60;;;15.30;99.90;;;;;;4985330;28;20077;-90
2023/12/06 13:17:35;;;;;;;28.33;26.52;;;15.30;99.90;;;;;;4985250;28;20061;-90
2023/12/06 13:20:02;;;;;;;28.65;26.75;;;15.20;99.90;;;;;;4984394;28;20029;-87